createdAt,value
2023-04-09T00:01:08.272Z,100.00
2023-04-09T00:03:35.496Z,100.00
2023-04-09T00:06:02.522Z,100.00
2023-04-09T00:08:29.421Z,100.00
2023-04-09T00:10:57.712Z,100.00
2023-04-09T00:13:31.949Z,100.00
2023-04-09T00:16:05.749Z,100.00
2023-04-09T00:18:32.453Z,100.00
2023-04-09T00:20:59.254Z,100.00
2023-04-09T00:23:25.917Z,100.00
2023-04-09T00:25:52.718Z,100.00
2023-04-09T00:28:19.423Z,100.00
2023-04-09T00:30:46.112Z,100.00
2023-04-09T00:33:12.803Z,100.00
2023-04-09T00:35:39.540Z,100.00
2023-04-09T00:38:06.288Z,100.00
2023-04-09T00:40:33.139Z,100.00
2023-04-09T00:42:59.876Z,100.00
2023-04-09T00:45:26.623Z,100.00
2023-04-09T00:47:54.016Z,100.00
2023-04-09T00:50:21.616Z,100.00
2023-04-09T00:52:48.332Z,100.00
2023-04-09T00:55:15.468Z,100.00
2023-04-09T00:57:42.182Z,100.00
2023-04-09T01:00:09.860Z,100.00
2023-04-09T01:02:36.742Z,100.00
2023-04-09T01:05:03.815Z,100.00
2023-04-09T01:07:59.794Z,100.00
2023-04-09T01:10:38.695Z,100.00
2023-04-09T01:13:13.303Z,100.00
2023-04-09T01:15:45.833Z,100.00
2023-04-09T01:18:36.214Z,100.00
2023-04-09T01:21:06.405Z,100.00
2023-04-09T01:23:45.129Z,100.00
2023-04-09T01:26:41.195Z,100.00
2023-04-09T01:29:08.891Z,100.00
2023-04-09T01:31:37.916Z,100.00
2023-04-09T01:34:06.707Z,100.00
2023-04-09T01:36:33.583Z,100.00
2023-04-09T01:39:02.936Z,100.00
2023-04-09T01:41:31.648Z,100.00
2023-04-09T01:44:01.825Z,100.00
2023-04-09T01:46:29.894Z,100.00
2023-04-09T01:48:59.396Z,100.00
2023-04-09T01:51:27.393Z,100.00
2023-04-09T01:53:54.127Z,100.00
2023-04-09T01:56:21.436Z,100.00
2023-04-09T01:58:48.334Z,100.00
2023-04-09T02:01:27.597Z,100.00
2023-04-09T02:04:01.208Z,100.00
2023-04-09T02:06:44.923Z,100.00
2023-04-09T02:09:12.782Z,100.00
2023-04-09T02:11:42.145Z,100.00
2023-04-09T02:14:09.376Z,100.00
2023-04-09T02:16:36.482Z,100.00
2023-04-09T02:19:04.660Z,100.00
2023-04-09T02:21:32.273Z,100.00
2023-04-09T02:23:59.032Z,100.00
2023-04-09T02:26:25.904Z,100.00
2023-04-09T02:28:52.784Z,100.00
2023-04-09T02:31:19.751Z,100.00
2023-04-09T02:33:46.544Z,100.00
2023-04-09T02:36:13.654Z,100.00
2023-04-09T02:38:41.975Z,100.00
2023-04-09T02:41:09.212Z,100.00
2023-04-09T02:43:36.038Z,100.00
2023-04-09T02:46:03.176Z,100.00
2023-04-09T02:48:30.834Z,100.00
2023-04-09T02:50:57.535Z,100.00
2023-04-09T02:53:24.284Z,100.00
2023-04-09T02:55:50.976Z,100.00
2023-04-09T02:58:17.635Z,100.00
2023-04-09T03:00:44.457Z,100.00
2023-04-09T03:03:11.369Z,100.00
2023-04-09T03:05:38.999Z,100.00
2023-04-09T03:08:05.886Z,100.00
2023-04-09T03:10:32.637Z,100.00
2023-04-09T03:12:59.307Z,100.00
2023-04-09T03:15:26.048Z,100.00
2023-04-09T03:17:52.739Z,100.00
2023-04-09T03:20:24.005Z,100.00
2023-04-09T03:22:50.803Z,100.00
2023-04-09T03:25:30.861Z,100.00
2023-04-09T03:27:58.299Z,100.00
2023-04-09T03:30:34.805Z,100.00
2023-04-09T03:33:03.688Z,100.00
2023-04-09T03:35:34.402Z,100.00
2023-04-09T03:38:01.240Z,100.00
2023-04-09T03:40:27.954Z,100.00
2023-04-09T03:42:54.780Z,100.00
2023-04-09T03:45:21.454Z,100.00
2023-04-09T03:47:51.335Z,100.00
2023-04-09T03:50:22.220Z,100.00
2023-04-09T03:52:52.394Z,100.00
2023-04-09T03:55:19.367Z,100.00
2023-04-09T03:57:47.725Z,100.00
2023-04-09T04:00:17.881Z,100.00
2023-04-09T04:02:51.018Z,100.00
2023-04-09T04:05:26.365Z,100.00
2023-04-09T04:07:55.421Z,100.00
2023-04-09T04:10:27.091Z,100.00
2023-04-09T04:12:53.902Z,100.00
2023-04-09T04:15:43.917Z,100.00
2023-04-09T04:18:13.394Z,100.00
2023-04-09T04:20:50.623Z,100.00
2023-04-09T04:23:17.700Z,100.00
2023-04-09T04:25:54.846Z,100.00
2023-04-09T04:28:28.252Z,100.00
2023-04-09T04:30:55.232Z,100.00
2023-04-09T04:33:22.267Z,100.00
2023-04-09T04:35:52.491Z,100.00
2023-04-09T04:38:51.973Z,100.00
2023-04-09T04:41:45.025Z,100.00
2023-04-09T04:44:17.071Z,100.00
2023-04-09T04:46:44.090Z,100.00
2023-04-09T04:49:11.260Z,100.00
2023-04-09T04:51:45.300Z,100.00
2023-04-09T04:54:14.323Z,100.00
2023-04-09T04:56:47.194Z,100.00
2023-04-09T04:59:40.505Z,100.00
2023-04-09T05:02:10.023Z,100.00
2023-04-09T05:05:09.538Z,100.00
2023-04-09T05:07:43.034Z,100.00
2023-04-09T05:10:09.959Z,100.00
2023-04-09T05:12:40.251Z,100.00
2023-04-09T05:15:08.509Z,100.00
2023-04-09T05:17:37.065Z,100.00
2023-04-09T05:20:05.576Z,100.00
2023-04-09T05:22:42.493Z,100.00
2023-04-09T05:25:10.574Z,100.00
2023-04-09T05:27:39.207Z,100.00
2023-04-09T05:30:07.687Z,100.00
2023-04-09T05:32:34.757Z,100.00
2023-04-09T05:35:01.685Z,100.00
2023-04-09T05:37:30.425Z,100.00
2023-04-09T05:39:57.222Z,100.00
2023-04-09T05:42:24.584Z,100.00
2023-04-09T05:45:11.673Z,100.00
2023-04-09T05:47:46.109Z,100.00
2023-04-09T05:50:18.223Z,100.00
2023-04-09T05:52:44.987Z,100.00
2023-04-09T05:55:13.686Z,100.00
2023-04-09T05:57:47.535Z,100.00
2023-04-09T06:00:15.798Z,100.00
2023-04-09T06:02:47.172Z,100.00
2023-04-09T06:05:13.935Z,100.00
2023-04-09T06:07:40.886Z,100.00
2023-04-09T06:10:08.197Z,100.00
2023-04-09T06:12:37.413Z,100.00
2023-04-09T06:15:05.530Z,100.00
2023-04-09T06:17:32.936Z,100.00
2023-04-09T06:19:59.554Z,100.00
2023-04-09T06:22:26.248Z,100.00
2023-04-09T06:24:52.878Z,100.00
2023-04-09T06:27:19.494Z,100.00
2023-04-09T06:29:46.163Z,100.00
2023-04-09T06:32:12.798Z,100.00
2023-04-09T06:34:39.418Z,100.00
2023-04-09T06:37:06.080Z,100.00
2023-04-09T06:39:33.337Z,100.00
2023-04-09T06:42:00.056Z,100.00
2023-04-09T06:44:37.929Z,100.00
2023-04-09T06:47:04.612Z,100.00
2023-04-09T06:49:31.295Z,100.00
2023-04-09T06:51:58.188Z,100.00
2023-04-09T06:54:25.009Z,100.00
2023-04-09T06:56:51.937Z,100.00
2023-04-09T06:59:18.675Z,100.00
2023-04-09T07:01:47.810Z,100.00
2023-04-09T07:04:19.699Z,100.00
2023-04-09T07:06:47.951Z,100.00
2023-04-09T07:09:14.621Z,100.00
2023-04-09T07:11:41.322Z,100.00
2023-04-09T07:14:07.977Z,100.00
2023-04-09T07:16:34.794Z,100.00
2023-04-09T07:19:01.578Z,100.00
2023-04-09T07:21:28.378Z,100.00
2023-04-09T07:23:56.482Z,100.00
2023-04-09T07:26:23.142Z,100.00
2023-04-09T07:28:49.778Z,100.00
2023-04-09T07:31:16.580Z,100.00
2023-04-09T07:33:43.313Z,100.00
2023-04-09T07:36:10.065Z,100.00
2023-04-09T07:38:36.725Z,100.00
2023-04-09T07:41:03.416Z,100.00
2023-04-09T07:43:30.837Z,100.00
2023-04-09T07:45:57.531Z,100.00
2023-04-09T07:48:24.244Z,100.00
2023-04-09T07:50:51.534Z,100.00
2023-04-09T07:53:18.197Z,100.00
2023-04-09T07:55:44.900Z,100.00
2023-04-09T07:58:11.862Z,100.00
2023-04-09T08:00:38.594Z,100.00
2023-04-09T08:03:05.904Z,100.00
2023-04-09T08:05:32.648Z,100.00
2023-04-09T08:07:59.308Z,100.00
2023-04-09T08:10:26.136Z,100.00
2023-04-09T08:12:52.827Z,100.00
2023-04-09T08:15:20.152Z,100.00
2023-04-09T08:17:46.875Z,100.00
2023-04-09T08:20:13.665Z,100.00
2023-04-09T08:22:41.235Z,100.00
2023-04-09T08:25:08.236Z,100.00
2023-04-09T08:27:36.159Z,100.00
2023-04-09T08:30:04.078Z,100.00
2023-04-09T08:32:31.043Z,100.00
2023-04-09T08:34:57.734Z,100.00
2023-04-09T08:37:24.444Z,100.00
2023-04-09T08:39:52.045Z,100.00
2023-04-09T08:42:19.769Z,100.00
2023-04-09T08:44:46.539Z,100.00
2023-04-09T08:47:13.330Z,100.00
2023-04-09T08:49:41.314Z,100.00
2023-04-09T08:52:08.279Z,100.00
2023-04-09T08:54:35.545Z,100.00
2023-04-09T08:57:07.677Z,100.00
2023-04-09T08:59:37.287Z,100.00
2023-04-09T09:02:08.928Z,100.00
2023-04-09T09:04:49.245Z,100.00
2023-04-09T09:07:16.685Z,100.00
2023-04-09T09:09:59.489Z,100.00
2023-04-09T09:12:44.509Z,100.00
2023-04-09T09:15:28.637Z,100.00
2023-04-09T09:18:00.664Z,100.00
2023-04-09T09:20:27.842Z,100.00
2023-04-09T09:22:56.004Z,100.00
2023-04-09T09:25:26.785Z,100.00
2023-04-09T09:27:53.993Z,100.00
2023-04-09T09:30:25.772Z,100.00
2023-04-09T09:33:09.010Z,100.00
2023-04-09T09:35:54.256Z,100.00
2023-04-09T09:38:21.279Z,100.00
2023-04-09T09:40:48.139Z,100.00
2023-04-09T09:43:14.895Z,100.00
2023-04-09T09:45:42.182Z,100.00
2023-04-09T09:48:10.885Z,100.00
2023-04-09T09:50:39.054Z,100.00
2023-04-09T09:53:06.427Z,100.00
2023-04-09T09:55:34.158Z,100.00
2023-04-09T09:58:31.058Z,100.00
2023-04-09T10:00:58.711Z,100.00
2023-04-09T10:03:31.013Z,100.00
2023-04-09T10:05:58.790Z,100.00
2023-04-09T10:08:25.935Z,100.00
2023-04-09T10:10:52.952Z,100.00
2023-04-09T10:13:32.459Z,100.00
2023-04-09T10:16:00.184Z,100.00
2023-04-09T10:18:26.926Z,100.00
2023-04-09T10:20:57.551Z,100.00
2023-04-09T10:23:40.818Z,100.00
2023-04-09T10:26:09.348Z,95.28
2023-04-09T10:28:37.641Z,94.91
2023-04-09T10:31:05.698Z,95.82
2023-04-09T10:33:34.519Z,94.94
2023-04-09T10:36:04.583Z,93.79
2023-04-09T10:38:42.388Z,90.84
2023-04-09T10:41:15.660Z,90.01
2023-04-09T10:43:43.082Z,93.67
2023-04-09T10:46:30.161Z,92.72
2023-04-09T10:49:15.806Z,90.65
2023-04-09T10:51:48.786Z,91.35
2023-04-09T10:54:33.967Z,91.62
2023-04-09T10:57:16.480Z,92.76
2023-04-09T10:59:47.675Z,97.13
2023-04-09T11:02:20.114Z,97.21
2023-04-09T11:04:54.519Z,97.18
2023-04-09T11:07:23.368Z,97.93
2023-04-09T11:09:49.960Z,99.46
2023-04-09T11:12:16.752Z,100.00
2023-04-09T11:14:43.358Z,100.00
2023-04-09T11:17:10.923Z,100.00
2023-04-09T11:19:37.568Z,100.00
2023-04-09T11:22:07.390Z,100.00
2023-04-09T11:24:43.525Z,100.00
2023-04-09T11:27:10.278Z,100.00
2023-04-09T11:29:36.965Z,100.00
2023-04-09T11:32:05.392Z,100.00
2023-04-09T11:34:32.493Z,100.00
2023-04-09T11:37:05.175Z,100.00
2023-04-09T11:39:31.830Z,100.00
2023-04-09T11:41:58.760Z,100.00
2023-04-09T11:44:25.493Z,100.00
2023-04-09T11:46:52.307Z,100.00
2023-04-09T11:49:19.129Z,100.00
2023-04-09T11:51:45.944Z,100.00
2023-04-09T11:54:12.694Z,99.82
2023-04-09T11:56:39.485Z,97.21
2023-04-09T11:59:06.342Z,95.35
2023-04-09T12:01:33.752Z,92.09
2023-04-09T12:04:00.877Z,91.49
2023-04-09T12:06:28.581Z,88.90
2023-04-09T12:08:59.600Z,88.00
2023-04-09T12:11:31.893Z,86.23
2023-04-09T12:14:00.114Z,83.72
2023-04-09T12:16:26.944Z,82.92
2023-04-09T12:18:55.914Z,86.88
2023-04-09T12:21:27.183Z,80.92
2023-04-09T12:23:54.276Z,78.01
2023-04-09T12:26:21.036Z,77.57
2023-04-09T12:28:47.711Z,72.33
2023-04-09T12:31:14.401Z,71.75
2023-04-09T12:33:41.192Z,70.11
2023-04-09T12:36:08.146Z,68.68
2023-04-09T12:38:35.007Z,70.12
2023-04-09T12:41:02.045Z,69.52
2023-04-09T12:43:28.744Z,69.91
2023-04-09T12:45:55.844Z,71.12
2023-04-09T12:48:22.496Z,71.83
2023-04-09T12:50:49.259Z,72.69
2023-04-09T12:53:16.145Z,71.94
2023-04-09T12:55:43.043Z,74.66
2023-04-09T12:58:09.774Z,74.23
2023-04-09T13:00:36.435Z,73.06
2023-04-09T13:03:03.230Z,73.45
2023-04-09T13:05:32.592Z,72.65
2023-04-09T13:07:59.289Z,72.60
2023-04-09T13:10:26.034Z,73.11
2023-04-09T13:12:52.748Z,73.98
2023-04-09T13:15:19.445Z,76.22
2023-04-09T13:17:46.413Z,77.21
2023-04-09T13:20:13.296Z,78.24
2023-04-09T13:22:40.016Z,77.32
2023-04-09T13:25:06.860Z,77.19
2023-04-09T13:27:33.525Z,76.68
2023-04-09T13:30:00.190Z,76.11
2023-04-09T13:32:27.180Z,75.88
2023-04-09T13:34:55.297Z,75.78
2023-04-09T13:37:22.071Z,76.79
2023-04-09T13:39:49.796Z,77.27
2023-04-09T13:42:17.149Z,77.29
2023-04-09T13:44:45.500Z,78.49
2023-04-09T13:47:13.256Z,79.59
2023-04-09T13:49:40.793Z,78.91
2023-04-09T13:52:07.519Z,79.85
2023-04-09T13:54:34.573Z,80.97
2023-04-09T13:57:01.579Z,81.69
2023-04-09T13:59:28.242Z,83.43
2023-04-09T14:01:54.968Z,84.35
2023-04-09T14:04:21.914Z,85.89
2023-04-09T14:06:48.629Z,91.77
2023-04-09T14:09:15.544Z,99.89
2023-04-09T14:11:46.208Z,100.00
2023-04-09T14:14:12.969Z,100.00
2023-04-09T14:16:39.743Z,100.00
2023-04-09T14:19:06.574Z,100.00
2023-04-09T14:21:34.000Z,100.00
2023-04-09T14:24:01.021Z,100.00
2023-04-09T14:26:29.099Z,100.00
2023-04-09T14:28:55.967Z,100.00
2023-04-09T14:31:22.758Z,100.00
2023-04-09T14:33:49.510Z,100.00
2023-04-09T14:36:16.865Z,100.00
2023-04-09T14:38:43.507Z,100.00
2023-04-09T14:41:10.175Z,100.00
2023-04-09T14:43:36.864Z,100.00
2023-04-09T14:46:04.160Z,100.00
2023-04-09T14:48:30.846Z,100.00
2023-04-09T14:50:57.561Z,100.00
2023-04-09T14:53:24.240Z,100.00
2023-04-09T14:55:51.167Z,100.00
2023-04-09T14:58:17.812Z,100.00
2023-04-09T15:00:45.102Z,100.00
2023-04-09T15:03:12.339Z,100.00
2023-04-09T15:05:39.211Z,100.00
2023-04-09T15:08:05.957Z,100.00
2023-04-09T15:10:32.637Z,100.00
2023-04-09T15:12:59.267Z,96.15
2023-04-09T15:15:26.826Z,95.80
2023-04-09T15:17:53.568Z,95.16
2023-04-09T15:20:20.299Z,94.33
2023-04-09T15:22:46.984Z,95.99
2023-04-09T15:25:14.459Z,94.60
2023-04-09T15:27:41.349Z,91.55
2023-04-09T15:30:08.606Z,93.89
2023-04-09T15:32:35.447Z,94.80
2023-04-09T15:35:02.234Z,97.92
2023-04-09T15:37:28.896Z,99.36
2023-04-09T15:39:55.693Z,99.47
2023-04-09T15:42:23.013Z,97.76
2023-04-09T15:44:50.620Z,99.23
2023-04-09T15:47:17.589Z,98.06
2023-04-09T15:49:44.280Z,97.12
2023-04-09T15:52:11.179Z,96.53
2023-04-09T15:54:38.018Z,96.80
2023-04-09T15:57:04.670Z,96.15
2023-04-09T15:59:31.397Z,98.55
2023-04-09T16:01:58.149Z,96.30
2023-04-09T16:04:24.811Z,98.94
2023-04-09T16:06:51.515Z,100.00
2023-04-09T16:09:18.173Z,100.00
2023-04-09T16:11:45.151Z,100.00
2023-04-09T16:14:11.773Z,99.38
2023-04-09T16:16:38.850Z,99.81
2023-04-09T16:19:05.716Z,100.00
2023-04-09T16:21:32.347Z,100.00
2023-04-09T16:24:00.807Z,100.00
2023-04-09T16:26:27.458Z,100.00
2023-04-09T16:28:54.357Z,99.92
2023-04-09T16:31:21.297Z,99.97
2023-04-09T16:33:47.980Z,99.63
2023-04-09T16:36:16.979Z,99.71
2023-04-09T16:38:43.744Z,99.70
2023-04-09T16:41:12.997Z,100.00
2023-04-09T16:43:39.748Z,100.00
2023-04-09T16:46:07.520Z,100.00
2023-04-09T16:48:35.775Z,100.00
2023-04-09T16:51:02.453Z,100.00
2023-04-09T16:53:29.111Z,100.00
2023-04-09T16:55:55.784Z,100.00
2023-04-09T16:58:22.405Z,100.00
2023-04-09T17:00:50.719Z,100.00
2023-04-09T17:03:18.689Z,100.00
2023-04-09T17:05:49.416Z,100.00
2023-04-09T17:08:24.361Z,100.00
2023-04-09T17:10:52.031Z,100.00
2023-04-09T17:13:18.700Z,100.00
2023-04-09T17:15:45.365Z,100.00
2023-04-09T17:18:12.068Z,100.00
2023-04-09T17:20:38.775Z,100.00
2023-04-09T17:23:05.510Z,100.00
2023-04-09T17:25:32.192Z,100.00
2023-04-09T17:27:58.904Z,100.00
2023-04-09T17:30:25.876Z,100.00
2023-04-09T17:32:52.571Z,100.00
2023-04-09T17:35:21.820Z,100.00
2023-04-09T17:37:50.444Z,100.00
2023-04-09T17:40:18.803Z,100.00
2023-04-09T17:42:45.786Z,100.00
2023-04-09T17:45:13.042Z,100.00
2023-04-09T17:47:39.685Z,100.00
2023-04-09T17:50:10.274Z,100.00
2023-04-09T17:52:37.437Z,100.00
2023-04-09T17:55:14.063Z,100.00
2023-04-09T17:57:41.833Z,100.00
2023-04-09T18:00:09.653Z,100.00
2023-04-09T18:02:46.056Z,100.00
2023-04-09T18:05:13.145Z,100.00
2023-04-09T18:07:40.022Z,100.00
2023-04-09T18:10:07.093Z,100.00
2023-04-09T18:12:33.778Z,100.00
2023-04-09T18:15:00.418Z,100.00
2023-04-09T18:17:27.163Z,100.00
2023-04-09T18:19:58.470Z,100.00
2023-04-09T18:22:26.990Z,100.00
2023-04-09T18:24:54.258Z,100.00
2023-04-09T18:27:21.592Z,100.00
2023-04-09T18:29:49.449Z,100.00
2023-04-09T18:32:17.010Z,100.00
2023-04-09T18:34:45.113Z,100.00
2023-04-09T18:37:12.275Z,100.00
2023-04-09T18:39:38.915Z,100.00
2023-04-09T18:42:05.632Z,100.00
2023-04-09T18:44:36.223Z,100.00
2023-04-09T18:47:05.712Z,100.00
2023-04-09T18:49:33.298Z,100.00
2023-04-09T18:52:00.019Z,100.00
2023-04-09T18:54:26.681Z,100.00
2023-04-09T18:56:53.525Z,100.00
2023-04-09T18:59:20.112Z,100.00
2023-04-09T19:01:46.936Z,100.00
2023-04-09T19:04:13.837Z,100.00
2023-04-09T19:06:40.854Z,100.00
2023-04-09T19:09:07.629Z,100.00
2023-04-09T19:11:34.364Z,100.00
2023-04-09T19:14:02.142Z,100.00
2023-04-09T19:16:31.434Z,100.00
2023-04-09T19:18:58.098Z,100.00
2023-04-09T19:21:24.818Z,100.00
2023-04-09T19:23:51.634Z,100.00
2023-04-09T19:26:18.321Z,100.00
2023-04-09T19:28:45.048Z,100.00
2023-04-09T19:31:14.502Z,100.00
2023-04-09T19:33:41.251Z,100.00
2023-04-09T19:36:08.290Z,100.00
2023-04-09T19:38:35.006Z,100.00
2023-04-09T19:41:01.623Z,100.00
2023-04-09T19:43:28.275Z,100.00
2023-04-09T19:45:54.996Z,100.00
2023-04-09T19:48:21.673Z,100.00
2023-04-09T19:50:49.084Z,100.00
2023-04-09T19:53:18.522Z,100.00
2023-04-09T19:55:45.221Z,100.00
2023-04-09T19:58:12.064Z,100.00
2023-04-09T20:00:38.827Z,100.00
2023-04-09T20:03:07.161Z,100.00
2023-04-09T20:05:34.008Z,100.00
2023-04-09T20:08:00.750Z,100.00
2023-04-09T20:10:27.435Z,100.00
2023-04-09T20:12:54.165Z,100.00
2023-04-09T20:15:20.950Z,100.00
2023-04-09T20:17:48.761Z,100.00
2023-04-09T20:20:20.048Z,100.00
2023-04-09T20:22:56.369Z,100.00
2023-04-09T20:25:24.215Z,100.00
2023-04-09T20:27:54.336Z,100.00
2023-04-09T20:30:21.282Z,100.00
2023-04-09T20:32:50.862Z,100.00
2023-04-09T20:35:17.973Z,100.00
2023-04-09T20:37:48.417Z,100.00
2023-04-09T20:40:15.729Z,100.00
2023-04-09T20:42:42.479Z,100.00
2023-04-09T20:45:09.687Z,100.00
2023-04-09T20:47:36.496Z,100.00
2023-04-09T20:50:03.938Z,100.00
2023-04-09T20:52:30.697Z,100.00
2023-04-09T20:54:57.610Z,100.00
2023-04-09T20:57:24.568Z,100.00
2023-04-09T20:59:52.749Z,100.00
2023-04-09T21:02:22.817Z,100.00
2023-04-09T21:04:49.477Z,100.00
2023-04-09T21:07:16.231Z,100.00
2023-04-09T21:09:42.854Z,100.00
2023-04-09T21:12:09.492Z,100.00
2023-04-09T21:14:36.227Z,100.00
2023-04-09T21:17:02.920Z,100.00
2023-04-09T21:19:29.661Z,100.00
2023-04-09T21:21:56.571Z,100.00
2023-04-09T21:24:23.506Z,100.00
2023-04-09T21:26:52.317Z,100.00
2023-04-09T21:29:20.761Z,100.00
2023-04-09T21:31:48.385Z,100.00
2023-04-09T21:34:15.617Z,100.00
2023-04-09T21:36:45.228Z,100.00
2023-04-09T21:39:12.333Z,100.00
2023-04-09T21:41:39.319Z,100.00
2023-04-09T21:44:08.640Z,100.00
2023-04-09T21:46:37.076Z,100.00
2023-04-09T21:49:04.372Z,100.00
2023-04-09T21:51:33.610Z,100.00
2023-04-09T21:54:08.338Z,100.00
2023-04-09T21:56:35.917Z,100.00
2023-04-09T21:59:03.398Z,100.00
2023-04-09T22:01:34.688Z,100.00
2023-04-09T22:04:02.115Z,100.00
2023-04-09T22:06:29.423Z,100.00
2023-04-09T22:08:57.312Z,100.00
2023-04-09T22:11:27.234Z,100.00
2023-04-09T22:13:55.464Z,100.00
2023-04-09T22:16:22.144Z,100.00
2023-04-09T22:18:49.041Z,100.00
2023-04-09T22:21:16.537Z,100.00
2023-04-09T22:23:43.701Z,100.00
2023-04-09T22:26:10.828Z,100.00
2023-04-09T22:28:38.458Z,100.00
2023-04-09T22:31:05.899Z,100.00
2023-04-09T22:33:32.762Z,100.00
2023-04-09T22:35:59.578Z,100.00
2023-04-09T22:38:26.546Z,100.00
2023-04-09T22:40:54.628Z,100.00
2023-04-09T22:43:21.376Z,100.00
2023-04-09T22:45:54.900Z,100.00
2023-04-09T22:48:22.834Z,100.00
2023-04-09T22:50:50.455Z,100.00
2023-04-09T22:53:20.850Z,100.00
2023-04-09T22:55:51.030Z,100.00
2023-04-09T22:58:18.714Z,100.00
2023-04-09T23:00:45.648Z,100.00
2023-04-09T23:03:12.600Z,100.00
2023-04-09T23:05:39.652Z,100.00
2023-04-09T23:08:06.378Z,100.00
2023-04-09T23:10:34.004Z,100.00
2023-04-09T23:13:00.942Z,100.00
2023-04-09T23:15:28.461Z,100.00
2023-04-09T23:17:55.550Z,100.00
2023-04-09T23:20:22.424Z,100.00
2023-04-09T23:22:49.287Z,100.00
2023-04-09T23:25:16.590Z,100.00
2023-04-09T23:27:43.773Z,100.00
2023-04-09T23:30:10.885Z,100.00
2023-04-09T23:32:37.668Z,100.00
2023-04-09T23:35:04.961Z,100.00
2023-04-09T23:37:31.584Z,100.00
2023-04-09T23:39:58.314Z,100.00
2023-04-09T23:42:26.232Z,100.00
2023-04-09T23:44:53.305Z,100.00
2023-04-09T23:47:22.248Z,100.00
2023-04-09T23:49:48.889Z,100.00
2023-04-09T23:52:15.663Z,100.00
2023-04-09T23:54:50.181Z,100.00
2023-04-09T23:57:17.859Z,100.00
2023-04-09T23:59:44.443Z,100.00
